Terminal Aerodrome Forecast
Issued by NWS Atlanta, GA

Home | Current Version | Previous Version | Text Only | Print | Product List | Glossary On
Versions: 1 2 3 4 5 6 7 8 9 10 11 12 13 14 15
000
FTUS42 KFFC 050522
TAFCSG
TAF
KCSG 050522Z 0506/0606 24004KT P6SM SKC
     FM051500 25006KT P6SM SCT050 SCT250 PROB30 0520/0524 6SM TSRA
      BKN050CB
     FM060200 22004KT P6SM SCT070 BKN250=

USA.gov is the U.S. government's official web portal to all federal, state and local government web resources and services.